createdAt,value
2023-01-29T00:01:23.263Z,102874.19
2023-01-29T00:06:26.311Z,102870.13
2023-01-29T00:11:28.145Z,102875.72
2023-01-29T00:16:29.718Z,102875.25
2023-01-29T00:21:32.243Z,102866.31
2023-01-29T00:26:33.744Z,102850.25
2023-01-29T00:31:35.336Z,102842.91
2023-01-29T00:36:36.857Z,102837.53
2023-01-29T00:42:00.176Z,102829.88
2023-01-29T00:47:02.126Z,102820.59
2023-01-29T00:52:22.359Z,102825.81
2023-01-29T00:57:26.122Z,102830.16
2023-01-29T01:02:47.156Z,102839.06
2023-01-29T01:07:51.421Z,102836.09
2023-01-29T01:12:58.733Z,102835.69
2023-01-29T01:18:01.909Z,102832.25
2023-01-29T01:23:03.547Z,102829.34
2023-01-29T01:28:05.111Z,102823.25
2023-01-29T01:33:06.557Z,102808.97
2023-01-29T01:38:08.036Z,102816.75
2023-01-29T01:43:10.166Z,102819.16
2023-01-29T01:48:17.375Z,102823.97
2023-01-29T01:53:27.016Z,102824.50
2023-01-29T01:58:35.077Z,102827.78
2023-01-29T02:04:04.035Z,102830.44
2023-01-29T02:09:30.171Z,102833.19
2023-01-29T02:14:32.160Z,102841.19
2023-01-29T02:19:47.318Z,102826.41
2023-01-29T02:25:15.907Z,102823.91
2023-01-29T02:30:27.570Z,102817.50
2023-01-29T02:35:39.013Z,102819.28
2023-01-29T02:40:45.482Z,102811.78
2023-01-29T02:45:54.215Z,102806.16
2023-01-29T02:51:08.905Z,102823.16
2023-01-29T02:56:16.329Z,102831.25
2023-01-29T03:01:23.401Z,102832.91
2023-01-29T03:06:33.108Z,102822.47
2023-01-29T03:11:41.424Z,102823.97
2023-01-29T03:16:49.348Z,102819.53
2023-01-29T03:21:59.534Z,102816.22
2023-01-29T03:27:22.702Z,102803.00
2023-01-29T03:32:28.808Z,102798.81
2023-01-29T03:37:37.646Z,102789.28
2023-01-29T03:42:44.821Z,102782.78
2023-01-29T03:47:56.606Z,102774.66
2023-01-29T03:53:20.880Z,102769.34
2023-01-29T03:58:34.942Z,102765.84
2023-01-29T04:03:44.714Z,102764.31
2023-01-29T04:08:51.376Z,102760.53
2023-01-29T04:13:53.559Z,102759.03
2023-01-29T04:18:55.549Z,102756.97
2023-01-29T04:23:57.031Z,102754.69
2023-01-29T04:29:17.496Z,102732.53
2023-01-29T04:34:28.347Z,102732.28
2023-01-29T04:39:56.434Z,102731.03
2023-01-29T04:45:19.037Z,102738.50
2023-01-29T04:50:35.435Z,102738.78
2023-01-29T04:55:52.663Z,102730.38
2023-01-29T05:00:54.840Z,102719.31
2023-01-29T05:05:58.459Z,102712.69
2023-01-29T05:11:01.131Z,102711.19
2023-01-29T05:16:14.486Z,102704.56
2023-01-29T05:21:16.318Z,102704.69
2023-01-29T05:26:36.365Z,102702.28
2023-01-29T05:31:37.848Z,102712.59
2023-01-29T05:36:39.322Z,102713.00
2023-01-29T05:41:40.860Z,102717.31
2023-01-29T05:46:42.320Z,102724.84
2023-01-29T05:51:44.384Z,102731.44
2023-01-29T05:56:45.852Z,102735.03
2023-01-29T06:01:47.280Z,102723.03
2023-01-29T06:06:48.731Z,102709.81
2023-01-29T06:11:50.186Z,102689.44
2023-01-29T06:16:51.575Z,102685.63
2023-01-29T06:21:53.190Z,102688.94
2023-01-29T06:26:54.682Z,102685.63
2023-01-29T06:31:56.252Z,102683.09
2023-01-29T06:36:57.762Z,102675.31
2023-01-29T06:41:59.199Z,102671.25
2023-01-29T06:47:00.864Z,102677.63
2023-01-29T06:52:02.261Z,102667.66
2023-01-29T06:57:03.692Z,102687.69
2023-01-29T07:02:05.178Z,102693.53
2023-01-29T07:07:12.762Z,102680.78
2023-01-29T07:12:14.223Z,102675.97
2023-01-29T07:17:15.761Z,102680.69
2023-01-29T07:22:17.167Z,102679.28
2023-01-29T07:27:18.596Z,102677.09
2023-01-29T07:32:20.030Z,102672.66
2023-01-29T07:37:21.448Z,102667.06
2023-01-29T07:42:23.558Z,102678.38
2023-01-29T07:47:24.987Z,102678.63
2023-01-29T07:52:26.616Z,102668.84
2023-01-29T07:57:28.149Z,102667.41
2023-01-29T08:02:29.658Z,102646.78
2023-01-29T08:07:31.225Z,102637.97
2023-01-29T08:12:32.663Z,102630.94
2023-01-29T08:17:34.797Z,102627.78
2023-01-29T08:22:36.304Z,102650.06
2023-01-29T08:27:37.809Z,102640.91
2023-01-29T08:32:39.235Z,102625.19
2023-01-29T08:37:40.838Z,102627.88
2023-01-29T08:42:42.414Z,102611.91
2023-01-29T08:47:48.313Z,102607.84
2023-01-29T08:52:49.750Z,102597.88
2023-01-29T08:57:51.491Z,102588.94
2023-01-29T09:02:53.007Z,102597.84
2023-01-29T09:07:56.839Z,102603.31
2023-01-29T09:12:58.498Z,102597.44
2023-01-29T09:18:04.055Z,102605.59
2023-01-29T09:23:07.624Z,102604.28
2023-01-29T09:28:09.077Z,102601.84
2023-01-29T09:33:10.542Z,102601.06
2023-01-29T09:38:12.004Z,102600.44
2023-01-29T09:43:18.674Z,102599.00
2023-01-29T09:48:23.456Z,102594.16
2023-01-29T09:53:32.626Z,102596.81
2023-01-29T09:58:38.547Z,102595.28
2023-01-29T10:03:59.698Z,102591.41
2023-01-29T10:09:39.130Z,102578.13
2023-01-29T10:15:02.966Z,102580.69
2023-01-29T10:20:30.600Z,102587.28
2023-01-29T10:25:37.285Z,102587.75
2023-01-29T10:30:44.264Z,102591.84
2023-01-29T10:35:53.394Z,102585.97
2023-01-29T10:41:10.946Z,102581.97
2023-01-29T10:46:45.346Z,102573.53
2023-01-29T10:51:52.831Z,102562.59
2023-01-29T10:57:20.539Z,102552.59
2023-01-29T11:02:22.704Z,102532.00
2023-01-29T11:07:25.183Z,102525.31
2023-01-29T11:12:32.103Z,102512.78
2023-01-29T11:17:33.599Z,102507.91
2023-01-29T11:22:35.819Z,102499.16
2023-01-29T11:27:50.372Z,102489.59
2023-01-29T11:33:20.059Z,102479.50
2023-01-29T11:38:27.149Z,102473.75
2023-01-29T11:43:34.123Z,102467.19
2023-01-29T11:48:42.219Z,102467.63
2023-01-29T11:53:46.218Z,102461.44
2023-01-29T11:58:50.520Z,102444.44
2023-01-29T12:03:54.430Z,102435.97
2023-01-29T12:08:58.609Z,102428.31
2023-01-29T12:14:06.658Z,102424.97
2023-01-29T12:19:27.467Z,102424.53
2023-01-29T12:24:36.297Z,102420.44
2023-01-29T12:29:49.538Z,102410.22
2023-01-29T12:34:59.056Z,102396.13
2023-01-29T12:40:04.039Z,102384.97
2023-01-29T12:45:11.056Z,102361.00
2023-01-29T12:50:30.084Z,102361.88
2023-01-29T12:55:34.339Z,102346.09
2023-01-29T13:00:42.088Z,102342.88
2023-01-29T13:06:11.192Z,102329.31
2023-01-29T13:11:22.396Z,102319.75
2023-01-29T13:16:31.917Z,102304.69
2023-01-29T13:21:42.315Z,102293.22
2023-01-29T13:26:48.982Z,102291.34
2023-01-29T13:32:03.909Z,102277.66
2023-01-29T13:37:31.733Z,102274.22
2023-01-29T13:42:47.175Z,102258.00
2023-01-29T13:47:51.022Z,102241.00
2023-01-29T13:52:56.438Z,102241.31
2023-01-29T13:58:02.310Z,102225.53
2023-01-29T14:03:04.797Z,102226.72
2023-01-29T14:08:35.795Z,102229.59
2023-01-29T14:13:37.288Z,102229.38
2023-01-29T14:18:47.757Z,102222.59
2023-01-29T14:24:08.018Z,102222.81
2023-01-29T14:29:18.803Z,102220.25
2023-01-29T14:34:28.123Z,102214.94
2023-01-29T14:39:44.365Z,102213.47
2023-01-29T14:44:45.837Z,102214.28
2023-01-29T14:49:53.823Z,102210.75
2023-01-29T14:55:01.889Z,102202.38
2023-01-29T15:00:13.498Z,102210.59
2023-01-29T15:05:19.518Z,102188.31
2023-01-29T15:10:33.308Z,102179.94
2023-01-29T15:15:50.676Z,102172.28
2023-01-29T15:21:05.830Z,102164.59
2023-01-29T15:26:11.870Z,102167.06
2023-01-29T15:31:18.617Z,102167.16
2023-01-29T15:36:28.134Z,102147.31
2023-01-29T15:41:29.500Z,102148.88
2023-01-29T15:46:36.417Z,102143.56
2023-01-29T15:51:38.676Z,102142.78
2023-01-29T15:56:54.172Z,102127.13
2023-01-29T16:01:56.981Z,102133.34
2023-01-29T16:07:00.485Z,102129.69
2023-01-29T16:12:02.244Z,102131.28
2023-01-29T16:17:22.650Z,102132.94
2023-01-29T16:22:26.730Z,102137.41
2023-01-29T16:27:29.254Z,102124.34
2023-01-29T16:32:31.551Z,102135.34
2023-01-29T16:37:36.385Z,102133.25
2023-01-29T16:42:39.588Z,102116.06
2023-01-29T16:47:41.571Z,102121.44
2023-01-29T16:53:01.568Z,102118.47
2023-01-29T16:58:10.735Z,102113.72
2023-01-29T17:03:14.708Z,102107.41
2023-01-29T17:08:27.042Z,102095.13
2023-01-29T17:13:42.744Z,102098.44
2023-01-29T17:18:45.037Z,102103.75
2023-01-29T17:23:46.559Z,102103.97
2023-01-29T17:28:52.333Z,102106.72
2023-01-29T17:33:56.141Z,102095.44
2023-01-29T17:39:00.355Z,102087.09
2023-01-29T17:44:01.783Z,102073.44
2023-01-29T17:49:09.798Z,102078.72
2023-01-29T17:54:11.260Z,102076.19
2023-01-29T17:59:19.788Z,102065.97
2023-01-29T18:04:21.749Z,102052.72
2023-01-29T18:09:23.424Z,102047.16
2023-01-29T18:14:25.881Z,102045.69
2023-01-29T18:19:31.255Z,102023.69
2023-01-29T18:24:33.984Z,102029.00
2023-01-29T18:29:35.585Z,102011.22
2023-01-29T18:34:38.710Z,101997.78
2023-01-29T18:39:40.142Z,101992.78
2023-01-29T18:44:41.741Z,101987.09
2023-01-29T18:49:43.188Z,101975.22
2023-01-29T18:54:44.606Z,101965.47
2023-01-29T18:59:47.388Z,101956.63
2023-01-29T19:04:52.051Z,101934.31
2023-01-29T19:09:54.061Z,101936.59
2023-01-29T19:14:57.870Z,101940.81
2023-01-29T19:20:02.423Z,101916.06
2023-01-29T19:25:04.790Z,101895.84
2023-01-29T19:30:06.977Z,101893.38
2023-01-29T19:35:08.516Z,101890.91
2023-01-29T19:40:11.659Z,101874.97
2023-01-29T19:45:14.745Z,101869.00
2023-01-29T19:50:16.815Z,101880.19
2023-01-29T19:55:19.964Z,101865.06
2023-01-29T20:00:21.933Z,101873.47
2023-01-29T20:05:24.065Z,101879.75
2023-01-29T20:10:27.569Z,101858.66
2023-01-29T20:15:29.154Z,101863.75
2023-01-29T20:20:32.689Z,101866.47
2023-01-29T20:25:36.133Z,101847.53
2023-01-29T20:30:38.571Z,101833.38
2023-01-29T20:35:40.339Z,101844.28
2023-01-29T20:40:49.831Z,101853.91
2023-01-29T20:45:51.347Z,101834.56
2023-01-29T20:50:54.055Z,101834.63
2023-01-29T20:55:55.509Z,101832.16
2023-01-29T21:00:57.045Z,101844.84
2023-01-29T21:05:59.212Z,101838.94
2023-01-29T21:11:01.571Z,101841.59
2023-01-29T21:16:04.914Z,101822.16
2023-01-29T21:21:07.346Z,101825.06
2023-01-29T21:26:09.132Z,101818.16
2023-01-29T21:31:14.719Z,101830.94
2023-01-29T21:36:16.236Z,101829.66
2023-01-29T21:41:17.899Z,101824.13
2023-01-29T21:46:19.407Z,101826.75
2023-01-29T21:51:23.316Z,101827.66
2023-01-29T21:56:24.813Z,101814.19
2023-01-29T22:01:37.360Z,101808.44
2023-01-29T22:06:39.973Z,101768.31
2023-01-29T22:11:41.714Z,101734.28
2023-01-29T22:16:43.250Z,101712.69
2023-01-29T22:21:44.924Z,101700.06
2023-01-29T22:26:48.494Z,101685.47
2023-01-29T22:31:52.351Z,101719.72
2023-01-29T22:36:56.481Z,101702.72
2023-01-29T22:41:58.087Z,101695.16
2023-01-29T22:47:07.325Z,101683.50
2023-01-29T22:52:13.913Z,101670.72
2023-01-29T22:57:16.809Z,101657.28
2023-01-29T23:02:18.284Z,101636.75
2023-01-29T23:07:19.718Z,101660.19
2023-01-29T23:12:21.192Z,101621.94
2023-01-29T23:17:22.685Z,101648.63
2023-01-29T23:22:25.167Z,101650.66
2023-01-29T23:27:26.586Z,101626.19
2023-01-29T23:32:28.263Z,101621.19
2023-01-29T23:37:29.685Z,101619.03
2023-01-29T23:42:31.276Z,101594.66
2023-01-29T23:47:32.890Z,101576.13
2023-01-29T23:52:36.627Z,101559.25
2023-01-29T23:57:38.228Z,101548.38
